sensor_id;sensor_type;location;lat;lon;timestamp;pressure;altitude;pressure_sealevel;temperature;humidity
74798;BME280;63326;45.088;7.658;2023-03-01T00:01:03;99166.63;;;3.05;71.85
74798;BME280;63326;45.088;7.658;2023-03-01T00:03:30;99183.13;;;3.20;71.07
74798;BME280;63326;45.088;7.658;2023-03-01T00:05:58;99188.28;;;3.22;71.64
74798;BME280;63326;45.088;7.658;2023-03-01T00:08:25;99130.19;;;2.86;71.47
74798;BME280;63326;45.088;7.658;2023-03-01T00:13:31;99142.19;;;3.02;70.99
74798;BME280;63326;45.088;7.658;2023-03-01T00:15:58;99124.25;;;2.94;71.46
74798;BME280;63326;45.088;7.658;2023-03-01T00:18:25;99146.28;;;3.17;71.58
74798;BME280;63326;45.088;7.658;2023-03-01T00:20:55;99136.59;;;3.16;71.42
74798;BME280;63326;45.088;7.658;2023-03-01T00:23:22;99147.44;;;3.24;71.02
74798;BME280;63326;45.088;7.658;2023-03-01T00:25:50;99161.97;;;3.41;70.24
74798;BME280;63326;45.088;7.658;2023-03-01T00:28:16;99131.53;;;3.24;70.71
74798;BME280;63326;45.088;7.658;2023-03-01T00:30:43;99162.44;;;3.46;70.96
74798;BME280;63326;45.088;7.658;2023-03-01T00:33:10;99142.13;;;3.24;70.64
74798;BME280;63326;45.088;7.658;2023-03-01T00:35:37;99140.47;;;3.23;70.60
74798;BME280;63326;45.088;7.658;2023-03-01T00:38:04;99173.34;;;3.32;70.85
74798;BME280;63326;45.088;7.658;2023-03-01T00:40:33;99132.56;;;3.01;71.88
74798;BME280;63326;45.088;7.658;2023-03-01T00:43:00;99171.16;;;3.26;72.07
74798;BME280;63326;45.088;7.658;2023-03-01T00:45:27;99158.41;;;3.20;72.85
74798;BME280;63326;45.088;7.658;2023-03-01T00:47:54;99127.00;;;3.04;72.82
74798;BME280;63326;45.088;7.658;2023-03-01T00:50:21;99129.31;;;3.08;72.79
74798;BME280;63326;45.088;7.658;2023-03-01T00:52:52;99139.16;;;3.06;73.48
74798;BME280;63326;45.088;7.658;2023-03-01T00:55:19;99127.38;;;2.99;73.22
74798;BME280;63326;45.088;7.658;2023-03-01T00:57:45;99134.13;;;3.03;74.03
74798;BME280;63326;45.088;7.658;2023-03-01T01:00:13;99137.75;;;2.91;74.08
74798;BME280;63326;45.088;7.658;2023-03-01T01:02:40;99121.97;;;2.89;74.81
74798;BME280;63326;45.088;7.658;2023-03-01T01:05:07;99097.91;;;2.81;74.31
74798;BME280;63326;45.088;7.658;2023-03-01T01:07:34;99140.38;;;3.02;74.38
74798;BME280;63326;45.088;7.658;2023-03-01T01:10:01;99111.53;;;2.88;74.46
74798;BME280;63326;45.088;7.658;2023-03-01T01:12:27;99092.75;;;2.80;74.58
74798;BME280;63326;45.088;7.658;2023-03-01T01:14:54;99079.00;;;2.75;74.58
74798;BME280;63326;45.088;7.658;2023-03-01T01:17:22;99111.00;;;2.94;74.11
74798;BME280;63326;45.088;7.658;2023-03-01T01:19:49;99117.41;;;2.92;74.21
74798;BME280;63326;45.088;7.658;2023-03-01T01:22:16;99102.97;;;2.84;73.98
74798;BME280;63326;45.088;7.658;2023-03-01T01:24:42;99104.88;;;2.82;74.13
74798;BME280;63326;45.088;7.658;2023-03-01T01:27:09;99119.78;;;2.95;73.66
74798;BME280;63326;45.088;7.658;2023-03-01T01:29:36;99083.59;;;2.73;74.11
74798;BME280;63326;45.088;7.658;2023-03-01T01:32:03;99093.84;;;2.66;74.17
74798;BME280;63326;45.088;7.658;2023-03-01T01:34:29;99084.81;;;2.57;74.28
74798;BME280;63326;45.088;7.658;2023-03-01T01:36:56;99106.84;;;2.69;74.28
74798;BME280;63326;45.088;7.658;2023-03-01T01:39:23;99080.72;;;2.53;74.34
74798;BME280;63326;45.088;7.658;2023-03-01T01:41:50;99094.78;;;2.54;74.41
74798;BME280;63326;45.088;7.658;2023-03-01T01:44:28;99108.66;;;2.69;74.66
74798;BME280;63326;45.088;7.658;2023-03-01T01:49:32;99099.34;;;2.74;75.00
74798;BME280;63326;45.088;7.658;2023-03-01T01:52:16;99099.34;;;2.74;74.75
74798;BME280;63326;45.088;7.658;2023-03-01T01:57:19;99100.09;;;2.76;74.52
74798;BME280;63326;45.088;7.658;2023-03-01T01:59:52;99098.91;;;2.69;74.14
74798;BME280;63326;45.088;7.658;2023-03-01T02:02:20;99090.47;;;2.64;74.14
74798;BME280;63326;45.088;7.658;2023-03-01T02:04:48;99063.03;;;2.54;74.35
74798;BME280;63326;45.088;7.658;2023-03-01T02:07:22;99059.09;;;2.48;74.32
74798;BME280;63326;45.088;7.658;2023-03-01T02:09:51;99081.94;;;2.60;74.30
74798;BME280;63326;45.088;7.658;2023-03-01T02:12:24;99085.41;;;2.61;74.46
74798;BME280;63326;45.088;7.658;2023-03-01T02:14:51;99060.16;;;2.57;74.38
74798;BME280;63326;45.088;7.658;2023-03-01T02:17:18;99061.84;;;2.58;74.29
74798;BME280;63326;45.088;7.658;2023-03-01T02:22:29;99069.88;;;2.79;74.34
74798;BME280;63326;45.088;7.658;2023-03-01T02:30:21;99047.34;;;2.84;73.54
74798;BME280;63326;45.088;7.658;2023-03-01T02:32:49;99057.59;;;2.89;73.15
74798;BME280;63326;45.088;7.658;2023-03-01T02:35:18;99059.38;;;2.88;73.12
74798;BME280;63326;45.088;7.658;2023-03-01T02:37:46;99058.31;;;2.80;73.51
74798;BME280;63326;45.088;7.658;2023-03-01T02:40:15;99061.69;;;2.71;73.68
74798;BME280;63326;45.088;7.658;2023-03-01T02:42:51;99051.84;;;2.62;74.51
74798;BME280;63326;45.088;7.658;2023-03-01T02:45:20;99019.38;;;2.48;75.24
74798;BME280;63326;45.088;7.658;2023-03-01T02:47:47;99011.56;;;2.47;75.00
74798;BME280;63326;45.088;7.658;2023-03-01T02:50:36;99047.16;;;2.76;75.26
74798;BME280;63326;45.088;7.658;2023-03-01T02:56:02;99037.41;;;2.77;74.25
74798;BME280;63326;45.088;7.658;2023-03-01T02:58:29;99029.31;;;2.78;74.73
74798;BME280;63326;45.088;7.658;2023-03-01T03:00:56;99019.56;;;2.79;74.22
74798;BME280;63326;45.088;7.658;2023-03-01T03:03:23;99015.97;;;2.80;74.24
74798;BME280;63326;45.088;7.658;2023-03-01T03:05:49;98999.59;;;2.75;73.86
74798;BME280;63326;45.088;7.658;2023-03-01T03:08:16;98999.13;;;2.70;74.08
74798;BME280;63326;45.088;7.658;2023-03-01T03:10:51;99018.00;;;2.87;74.34
74798;BME280;63326;45.088;7.658;2023-03-01T03:13:17;99016.66;;;2.82;73.97
74798;BME280;63326;45.088;7.658;2023-03-01T03:15:45;99003.34;;;2.72;74.48
74798;BME280;63326;45.088;7.658;2023-03-01T03:18:14;98987.69;;;2.69;74.58
74798;BME280;63326;45.088;7.658;2023-03-01T03:20:42;98976.16;;;2.70;74.53
74798;BME280;63326;45.088;7.658;2023-03-01T03:23:10;99011.13;;;2.85;74.21
74798;BME280;63326;45.088;7.658;2023-03-01T03:25:37;98990.94;;;2.73;74.69
74798;BME280;63326;45.088;7.658;2023-03-01T03:28:05;98989.47;;;2.80;74.38
74798;BME280;63326;45.088;7.658;2023-03-01T03:30:38;99005.81;;;2.85;75.33
74798;BME280;63326;45.088;7.658;2023-03-01T03:33:06;98991.88;;;2.83;75.23
74798;BME280;63326;45.088;7.658;2023-03-01T03:35:39;98999.06;;;2.92;75.10
74798;BME280;63326;45.088;7.658;2023-03-01T03:38:08;98999.91;;;2.93;75.12
74798;BME280;63326;45.088;7.658;2023-03-01T03:40:51;99007.25;;;2.89;75.05
74798;BME280;63326;45.088;7.658;2023-03-01T03:43:21;99001.75;;;2.81;75.31
74798;BME280;63326;45.088;7.658;2023-03-01T03:45:50;98965.81;;;2.67;75.38
74798;BME280;63326;45.088;7.658;2023-03-01T03:48:18;98953.28;;;2.69;75.61
74798;BME280;63326;45.088;7.658;2023-03-01T03:50:50;98931.31;;;2.57;75.68
74798;BME280;63326;45.088;7.658;2023-03-01T03:53:18;98939.34;;;2.67;75.18
74798;BME280;63326;45.088;7.658;2023-03-01T03:55:45;98965.47;;;2.93;75.17
74798;BME280;63326;45.088;7.658;2023-03-01T03:58:16;98998.84;;;3.16;74.49
74798;BME280;63326;45.088;7.658;2023-03-01T04:00:47;98988.63;;;3.11;74.27
74798;BME280;63326;45.088;7.658;2023-03-01T04:03:17;98986.97;;;3.10;74.25
74798;BME280;63326;45.088;7.658;2023-03-01T04:05:45;98952.56;;;2.99;74.15
74798;BME280;63326;45.088;7.658;2023-03-01T04:08:12;98961.56;;;3.08;73.49
74798;BME280;63326;45.088;7.658;2023-03-01T04:10:42;98974.50;;;3.22;73.79
74798;BME280;63326;45.088;7.658;2023-03-01T04:13:12;98944.50;;;3.01;73.58
74798;BME280;63326;45.088;7.658;2023-03-01T04:15:40;98980.06;;;3.19;72.72
74798;BME280;63326;45.088;7.658;2023-03-01T04:18:08;98927.69;;;2.91;74.08
74798;BME280;63326;45.088;7.658;2023-03-01T04:20:38;98947.72;;;3.04;74.94
74798;BME280;63326;45.088;7.658;2023-03-01T04:23:11;98960.47;;;3.10;74.65
74798;BME280;63326;45.088;7.658;2023-03-01T04:28:15;98957.88;;;2.99;75.20
74798;BME280;63326;45.088;7.658;2023-03-01T04:30:43;98966.78;;;2.98;75.31
74798;BME280;63326;45.088;7.658;2023-03-01T04:33:10;98942.16;;;2.86;75.30
74798;BME280;63326;45.088;7.658;2023-03-01T04:35:37;98970.16;;;3.00;75.59
74798;BME280;63326;45.088;7.658;2023-03-01T04:38:05;98939.16;;;2.80;75.12
74798;BME280;63326;45.088;7.658;2023-03-01T04:40:32;98931.59;;;2.75;75.30
74798;BME280;63326;45.088;7.658;2023-03-01T04:43:00;98965.69;;;3.01;75.32
74798;BME280;63326;45.088;7.658;2023-03-01T04:45:26;98945.84;;;2.95;75.06
74798;BME280;63326;45.088;7.658;2023-03-01T04:47:54;98964.94;;;3.10;75.93
74798;BME280;63326;45.088;7.658;2023-03-01T04:50:21;98932.41;;;2.87;74.73
74798;BME280;63326;45.088;7.658;2023-03-01T04:52:50;98927.75;;;2.79;75.62
74798;BME280;63326;45.088;7.658;2023-03-01T04:55:17;98949.94;;;2.99;75.35
74798;BME280;63326;45.088;7.658;2023-03-01T04:57:45;98933.44;;;2.96;75.50
74798;BME280;63326;45.088;7.658;2023-03-01T05:00:13;98954.63;;;3.16;75.09
74798;BME280;63326;45.088;7.658;2023-03-01T05:02:57;98938.63;;;2.97;75.64
74798;BME280;63326;45.088;7.658;2023-03-01T05:05:28;98953.28;;;3.01;75.62
74798;BME280;63326;45.088;7.658;2023-03-01T05:07:58;98939.69;;;2.95;75.82
74798;BME280;63326;45.088;7.658;2023-03-01T05:10:27;98952.19;;;3.04;76.14
74798;BME280;63326;45.088;7.658;2023-03-01T05:12:56;98935.63;;;2.91;76.65
74798;BME280;63326;45.088;7.658;2023-03-01T05:15:24;98914.16;;;2.73;76.10
74798;BME280;63326;45.088;7.658;2023-03-01T05:17:54;98928.94;;;2.86;76.42
74798;BME280;63326;45.088;7.658;2023-03-01T05:20:21;98926.91;;;2.79;76.90
74798;BME280;63326;45.088;7.658;2023-03-01T05:22:52;98949.50;;;2.83;77.05
74798;BME280;63326;45.088;7.658;2023-03-01T05:25:21;98909.88;;;2.60;77.34
74798;BME280;63326;45.088;7.658;2023-03-01T05:27:47;98952.53;;;2.78;77.01
74798;BME280;63326;45.088;7.658;2023-03-01T05:30:15;98933.56;;;2.62;77.26
74798;BME280;63326;45.088;7.658;2023-03-01T05:32:51;98947.94;;;2.80;77.31
74798;BME280;63326;45.088;7.658;2023-03-01T05:35:23;98953.47;;;2.88;77.22
74798;BME280;63326;45.088;7.658;2023-03-01T05:37:50;98940.13;;;2.79;77.03
74798;BME280;63326;45.088;7.658;2023-03-01T05:40:22;98964.91;;;2.89;76.59
74798;BME280;63326;45.088;7.658;2023-03-01T05:42:53;98947.25;;;2.78;76.78
74798;BME280;63326;45.088;7.658;2023-03-01T05:45:22;98961.91;;;2.82;77.26
74798;BME280;63326;45.088;7.658;2023-03-01T05:47:50;98944.59;;;2.78;76.75
74798;BME280;63326;45.088;7.658;2023-03-01T05:50:25;98959.00;;;2.85;76.50
74798;BME280;63326;45.088;7.658;2023-03-01T05:52:58;98925.72;;;2.72;76.59
74798;BME280;63326;45.088;7.658;2023-03-01T05:55:26;98939.63;;;2.85;76.67
74798;BME280;63326;45.088;7.658;2023-03-01T05:57:54;98881.16;;;2.56;76.54
74798;BME280;63326;45.088;7.658;2023-03-01T06:00:22;98938.84;;;2.94;76.64
74798;BME280;63326;45.088;7.658;2023-03-01T06:02:49;98950.13;;;3.07;76.83
74798;BME280;63326;45.088;7.658;2023-03-01T06:05:18;98938.63;;;2.97;76.77
74798;BME280;63326;45.088;7.658;2023-03-01T06:07:45;98935.75;;;2.89;76.85
74798;BME280;63326;45.088;7.658;2023-03-01T06:10:13;98939.81;;;2.93;76.98
74798;BME280;63326;45.088;7.658;2023-03-01T06:12:43;98941.91;;;2.89;77.09
74798;BME280;63326;45.088;7.658;2023-03-01T06:15:12;98960.00;;;3.05;76.87
74798;BME280;63326;45.088;7.658;2023-03-01T06:17:40;98962.91;;;3.02;76.39
74798;BME280;63326;45.088;7.658;2023-03-01T06:20:16;98963.75;;;3.03;76.63
74798;BME280;63326;45.088;7.658;2023-03-01T06:22:44;98917.19;;;2.68;76.56
74798;BME280;63326;45.088;7.658;2023-03-01T06:25:13;98960.84;;;3.06;77.11
74798;BME280;63326;45.088;7.658;2023-03-01T06:27:41;98907.66;;;2.77;76.38
74798;BME280;63326;45.088;7.658;2023-03-01T06:30:10;98965.38;;;3.15;76.83
74798;BME280;63326;45.088;7.658;2023-03-01T06:32:38;98945.34;;;3.01;76.40
74798;BME280;63326;45.088;7.658;2023-03-01T06:35:10;98937.66;;;2.98;76.23
74798;BME280;63326;45.088;7.658;2023-03-01T06:37:37;98944.22;;;3.04;76.71
74798;BME280;63326;45.088;7.658;2023-03-01T06:40:05;98941.22;;;3.08;76.76
74798;BME280;63326;45.088;7.658;2023-03-01T06:42:35;98957.75;;;3.22;76.53
74798;BME280;63326;45.088;7.658;2023-03-01T06:45:03;98951.97;;;3.28;76.16
74798;BME280;63326;45.088;7.658;2023-03-01T06:47:31;98962.38;;;3.40;76.46
74798;BME280;63326;45.088;7.658;2023-03-01T06:50:00;98974.72;;;3.51;75.66
74798;BME280;63326;45.088;7.658;2023-03-01T06:52:27;98957.63;;;3.44;75.61
74798;BME280;63326;45.088;7.658;2023-03-01T06:54:54;98964.63;;;3.45;75.02
74798;BME280;63326;45.088;7.658;2023-03-01T06:57:20;98958.34;;;3.46;75.17
74798;BME280;63326;45.088;7.658;2023-03-01T06:59:47;98974.91;;;3.59;75.71
74798;BME280;63326;45.088;7.658;2023-03-01T07:02:15;98960.81;;;3.59;76.07
74798;BME280;63326;45.088;7.658;2023-03-01T07:04:42;98956.78;;;3.64;75.55
74798;BME280;63326;45.088;7.658;2023-03-01T07:07:09;98944.16;;;3.57;75.03
74798;BME280;63326;45.088;7.658;2023-03-01T07:09:36;98914.53;;;3.42;75.53
74798;BME280;63326;45.088;7.658;2023-03-01T07:12:03;98966.75;;;3.72;75.62
74798;BME280;63326;45.088;7.658;2023-03-01T07:14:30;98958.31;;;3.67;74.93
74798;BME280;63326;45.088;7.658;2023-03-01T07:16:56;98953.69;;;3.59;74.29
74798;BME280;63326;45.088;7.658;2023-03-01T07:19:23;98963.13;;;3.73;74.72
74798;BME280;63326;45.088;7.658;2023-03-01T07:21:50;98940.25;;;3.51;74.95
74798;BME280;63326;45.088;7.658;2023-03-01T07:24:16;98957.25;;;3.69;75.13
74798;BME280;63326;45.088;7.658;2023-03-01T07:26:43;98963.44;;;3.80;73.70
74798;BME280;63326;45.088;7.658;2023-03-01T07:29:10;98965.53;;;3.86;73.09
74798;BME280;63326;45.088;7.658;2023-03-01T07:31:37;98937.44;;;3.73;73.99
74798;BME280;63326;45.088;7.658;2023-03-01T07:34:04;98962.50;;;3.90;74.13
74798;BME280;63326;45.088;7.658;2023-03-01T07:36:30;98961.97;;;3.96;73.82
74798;BME280;63326;45.088;7.658;2023-03-01T07:38:58;98972.22;;;4.11;73.00
74798;BME280;63326;45.088;7.658;2023-03-01T07:41:24;98968.50;;;4.23;72.63
74798;BME280;63326;45.088;7.658;2023-03-01T07:43:51;98954.81;;;4.27;72.15
74798;BME280;63326;45.088;7.658;2023-03-01T07:46:18;98951.78;;;4.32;71.42
74798;BME280;63326;45.088;7.658;2023-03-01T07:48:46;98942.25;;;4.20;70.78
74798;BME280;63326;45.088;7.658;2023-03-01T07:51:13;98962.41;;;4.42;69.97
74798;BME280;63326;45.088;7.658;2023-03-01T07:53:39;98947.75;;;4.47;70.77
74798;BME280;63326;45.088;7.658;2023-03-01T07:56:07;98963.03;;;4.74;69.97
74798;BME280;63326;45.088;7.658;2023-03-01T07:58:35;98960.53;;;4.82;69.20
74798;BME280;63326;45.088;7.658;2023-03-01T08:01:03;98958.88;;;4.91;69.55
74798;BME280;63326;45.088;7.658;2023-03-01T08:03:30;98958.16;;;5.18;69.54
74798;BME280;63326;45.088;7.658;2023-03-01T08:06:01;98961.66;;;5.28;68.27
74798;BME280;63326;45.088;7.658;2023-03-01T08:08:28;98968.06;;;5.55;66.51
74798;BME280;63326;45.088;7.658;2023-03-01T08:10:59;98947.75;;;5.63;67.19
74798;BME280;63326;45.088;7.658;2023-03-01T08:13:27;98952.44;;;5.89;66.09
74798;BME280;63326;45.088;7.658;2023-03-01T08:15:54;98953.91;;;6.11;65.96
74798;BME280;63326;45.088;7.658;2023-03-01T08:18:20;98916.69;;;6.01;65.38
74798;BME280;63326;45.088;7.658;2023-03-01T08:20:47;98952.47;;;6.26;65.60
74798;BME280;63326;45.088;7.658;2023-03-01T08:23:14;98949.50;;;6.29;65.53
74798;BME280;63326;45.088;7.658;2023-03-01T08:25:40;98927.28;;;6.11;64.56
74798;BME280;63326;45.088;7.658;2023-03-01T08:28:07;98949.94;;;6.24;65.06
74798;BME280;63326;45.088;7.658;2023-03-01T08:30:34;98955.34;;;6.32;64.42
74798;BME280;63326;45.088;7.658;2023-03-01T08:33:01;98943.44;;;6.37;64.57
74798;BME280;63326;45.088;7.658;2023-03-01T08:35:28;98929.66;;;6.41;65.03
74798;BME280;63326;45.088;7.658;2023-03-01T08:37:54;98945.44;;;6.52;64.10
74798;BME280;63326;45.088;7.658;2023-03-01T08:40:21;98952.94;;;6.67;63.55
74798;BME280;63326;45.088;7.658;2023-03-01T08:42:48;98935.72;;;6.61;63.17
74798;BME280;63326;45.088;7.658;2023-03-01T08:45:14;98941.06;;;6.79;63.03
74798;BME280;63326;45.088;7.658;2023-03-01T08:47:44;98947.69;;;6.92;62.65
74798;BME280;63326;45.088;7.658;2023-03-01T08:50:11;98915.50;;;6.86;62.14
74798;BME280;63326;45.088;7.658;2023-03-01T08:52:38;98940.00;;;6.89;60.62
74798;BME280;63326;45.088;7.658;2023-03-01T08:55:05;98925.13;;;7.05;60.85
74798;BME280;63326;45.088;7.658;2023-03-01T08:57:32;98923.63;;;7.20;59.78
74798;BME280;63326;45.088;7.658;2023-03-01T08:59:59;98934.34;;;7.46;59.74
74798;BME280;63326;45.088;7.658;2023-03-01T09:02:26;98901.94;;;7.41;59.10
74798;BME280;63326;45.088;7.658;2023-03-01T09:04:52;98929.66;;;7.74;58.17
74798;BME280;63326;45.088;7.658;2023-03-01T09:07:19;98932.56;;;7.80;57.84
74798;BME280;63326;45.088;7.658;2023-03-01T09:09:46;98924.50;;;8.06;57.32
74798;BME280;63326;45.088;7.658;2023-03-01T09:12:12;98909.47;;;8.05;55.92
74798;BME280;63326;45.088;7.658;2023-03-01T09:14:39;98904.84;;;8.07;55.99
74798;BME280;63326;45.088;7.658;2023-03-01T09:17:07;98910.56;;;8.21;55.69
74798;BME280;63326;45.088;7.658;2023-03-01T09:19:34;98928.41;;;7.86;55.13
74798;BME280;63326;45.088;7.658;2023-03-01T09:22:03;98933.28;;;7.65;54.45
74798;BME280;63326;45.088;7.658;2023-03-01T09:24:30;98918.59;;;7.61;52.95
74798;BME280;63326;45.088;7.658;2023-03-01T09:26:56;98914.47;;;8.00;53.36
74798;BME280;63326;45.088;7.658;2023-03-01T09:29:23;98913.84;;;8.41;52.97
74798;BME280;63326;45.088;7.658;2023-03-01T09:31:50;98901.50;;;8.14;50.40
74798;BME280;63326;45.088;7.658;2023-03-01T09:34:16;98912.25;;;7.88;51.65
74798;BME280;63326;45.088;7.658;2023-03-01T09:36:50;98911.00;;;8.42;51.65
74798;BME280;63326;45.088;7.658;2023-03-01T09:39:17;98905.84;;;8.57;51.11
74798;BME280;63326;45.088;7.658;2023-03-01T09:42:00;98912.22;;;8.64;51.68
74798;BME280;63326;45.088;7.658;2023-03-01T09:44:44;98883.50;;;8.74;50.80
74798;BME280;63326;45.088;7.658;2023-03-01T09:47:32;98904.25;;;9.05;48.81
74798;BME280;63326;45.088;7.658;2023-03-01T09:52:41;98905.75;;;8.83;47.81
74798;BME280;63326;45.088;7.658;2023-03-01T09:55:38;98876.47;;;8.65;48.27
74798;BME280;63326;45.088;7.658;2023-03-01T10:02:23;98864.66;;;8.92;47.22
74798;BME280;63326;45.088;7.658;2023-03-01T10:04:28;98895.91;;;9.16;46.92
74798;BME280;63326;45.088;7.658;2023-03-01T10:09:38;98881.53;;;9.33;46.22
74798;BME280;63326;45.088;7.658;2023-03-01T10:12:12;98891.38;;;9.08;47.00
74798;BME280;63326;45.088;7.658;2023-03-01T10:17:47;98887.84;;;9.57;45.07
74798;BME280;63326;45.088;7.658;2023-03-01T10:20:24;98882.69;;;9.47;44.68
74798;BME280;63326;45.088;7.658;2023-03-01T10:22:51;98882.19;;;9.51;45.65
74798;BME280;63326;45.088;7.658;2023-03-01T10:28:17;98849.44;;;8.60;46.16
74798;BME280;63326;45.088;7.658;2023-03-01T10:30:46;98857.44;;;8.52;46.87
74798;BME280;63326;45.088;7.658;2023-03-01T10:35:45;98861.75;;;8.45;46.66
74798;BME280;63326;45.088;7.658;2023-03-01T10:38:14;98868.72;;;8.37;47.80
74798;BME280;63326;45.088;7.658;2023-03-01T10:41:04;98857.91;;;8.55;48.29
74798;BME280;63326;45.088;7.658;2023-03-01T10:43:48;98853.47;;;9.21;45.56
74798;BME280;63326;45.088;7.658;2023-03-01T10:46:30;98839.09;;;9.86;45.10
74798;BME280;63326;45.088;7.658;2023-03-01T10:49:21;98845.28;;;9.86;43.63
74798;BME280;63326;45.088;7.658;2023-03-01T10:51:50;98828.50;;;9.45;44.08
74798;BME280;63326;45.088;7.658;2023-03-01T10:54:29;98836.34;;;10.02;43.47
74798;BME280;63326;45.088;7.658;2023-03-01T10:57:01;98830.81;;;10.03;44.36
74798;BME280;63326;45.088;7.658;2023-03-01T10:59:37;98819.28;;;9.95;44.20
74798;BME280;63326;45.088;7.658;2023-03-01T11:07:57;98824.19;;;9.91;43.72
74798;BME280;63326;45.088;7.658;2023-03-01T11:10:31;98799.28;;;10.22;44.32
74798;BME280;63326;45.088;7.658;2023-03-01T11:13:17;98799.56;;;9.88;44.01
74798;BME280;63326;45.088;7.658;2023-03-01T11:16:07;98807.28;;;9.35;45.84
74798;BME280;63326;45.088;7.658;2023-03-01T11:18:36;98792.75;;;9.77;45.32
74798;BME280;63326;45.088;7.658;2023-03-01T11:21:15;98790.34;;;9.51;46.13
74798;BME280;63326;45.088;7.658;2023-03-01T11:23:43;98791.75;;;9.22;45.94
74798;BME280;63326;45.088;7.658;2023-03-01T11:26:13;98765.84;;;9.07;46.55
74798;BME280;63326;45.088;7.658;2023-03-01T11:28:42;98770.56;;;9.60;46.14
74798;BME280;63326;45.088;7.658;2023-03-01T11:31:11;98761.75;;;9.51;45.25
74798;BME280;63326;45.088;7.658;2023-03-01T11:34:00;98750.81;;;9.06;45.81
74798;BME280;63326;45.088;7.658;2023-03-01T11:41:48;98746.31;;;9.62;46.33
74798;BME280;63326;45.088;7.658;2023-03-01T11:44:25;98732.31;;;9.51;45.81
74798;BME280;63326;45.088;7.658;2023-03-01T11:56:27;98727.22;;;9.96;43.97
74798;BME280;63326;45.088;7.658;2023-03-01T12:01:27;98694.50;;;10.08;42.58
74798;BME280;63326;45.088;7.658;2023-03-01T12:06:52;98694.72;;;10.67;41.78
74798;BME280;63326;45.088;7.658;2023-03-01T12:35:03;98618.31;;;9.34;44.51
74798;BME280;63326;45.088;7.658;2023-03-01T12:40:46;98632.97;;;9.07;45.03
74798;BME280;63326;45.088;7.658;2023-03-01T12:46:41;98629.44;;;9.15;45.80
74798;BME280;63326;45.088;7.658;2023-03-01T12:49:37;98567.31;;;8.97;46.15
74798;BME280;63326;45.088;7.658;2023-03-01T12:54:57;98583.72;;;9.56;44.75
74798;BME280;63326;45.088;7.658;2023-03-01T12:57:33;98595.09;;;9.58;44.21
74798;BME280;63326;45.088;7.658;2023-03-01T13:00:27;98611.03;;;9.51;43.51
74798;BME280;63326;45.088;7.658;2023-03-01T13:06:15;98606.75;;;9.88;43.60
74798;BME280;63326;45.088;7.658;2023-03-01T13:09:05;98609.50;;;9.79;43.99
74798;BME280;63326;45.088;7.658;2023-03-01T13:11:35;98600.84;;;9.46;43.72
74798;BME280;63326;45.088;7.658;2023-03-01T13:16:47;98602.25;;;9.34;44.89
74798;BME280;63326;45.088;7.658;2023-03-01T13:21:45;98569.72;;;9.22;44.27
74798;BME280;63326;45.088;7.658;2023-03-01T13:24:33;98587.63;;;9.22;44.20
74798;BME280;63326;45.088;7.658;2023-03-01T13:27:26;98591.66;;;8.79;45.06
74798;BME280;63326;45.088;7.658;2023-03-01T13:29:57;98539.44;;;8.60;45.54
74798;BME280;63326;45.088;7.658;2023-03-01T13:32:33;98580.22;;;8.93;45.76
74798;BME280;63326;45.088;7.658;2023-03-01T13:37:37;98574.81;;;9.09;43.81
74798;BME280;63326;45.088;7.658;2023-03-01T13:42:53;98578.31;;;9.10;44.55
74798;BME280;63326;45.088;7.658;2023-03-01T13:50:46;98553.13;;;9.27;44.68
74798;BME280;63326;45.088;7.658;2023-03-01T13:53:17;98580.06;;;9.26;43.44
74798;BME280;63326;45.088;7.658;2023-03-01T13:55:47;98565.72;;;9.18;43.75
74798;BME280;63326;45.088;7.658;2023-03-01T13:58:25;98574.44;;;9.12;45.12
74798;BME280;63326;45.088;7.658;2023-03-01T14:01:03;98588.41;;;9.00;44.39
74798;BME280;63326;45.088;7.658;2023-03-01T14:03:33;98560.41;;;8.79;43.76
74798;BME280;63326;45.088;7.658;2023-03-01T14:06:14;98578.09;;;8.80;45.09
74798;BME280;63326;45.088;7.658;2023-03-01T14:08:48;98579.94;;;8.80;45.10
74798;BME280;63326;45.088;7.658;2023-03-01T14:14:38;98582.66;;;8.72;45.24
74798;BME280;63326;45.088;7.658;2023-03-01T14:19:57;98595.47;;;8.76;46.04
74798;BME280;63326;45.088;7.658;2023-03-01T14:22:30;98570.69;;;8.51;46.89
74798;BME280;63326;45.088;7.658;2023-03-01T14:25:00;98590.88;;;8.54;47.21
74798;BME280;63326;45.088;7.658;2023-03-01T14:27:36;98591.41;;;8.49;46.73
74798;BME280;63326;45.088;7.658;2023-03-01T14:30:27;98544.19;;;8.01;48.24
74798;BME280;63326;45.088;7.658;2023-03-01T14:33:02;98588.88;;;8.15;48.21
74798;BME280;63326;45.088;7.658;2023-03-01T14:35:31;98586.06;;;8.17;47.94
74798;BME280;63326;45.088;7.658;2023-03-01T14:37:58;98600.44;;;8.40;48.33
74798;BME280;63326;45.088;7.658;2023-03-01T14:40:27;98626.09;;;8.17;48.90
74798;BME280;63326;45.088;7.658;2023-03-01T14:42:57;98621.28;;;8.20;49.42
74798;BME280;63326;45.088;7.658;2023-03-01T14:45:26;98603.28;;;7.98;49.78
74798;BME280;63326;45.088;7.658;2023-03-01T14:47:53;98580.91;;;7.83;50.58
74798;BME280;63326;45.088;7.658;2023-03-01T14:50:24;98629.47;;;8.11;52.26
74798;BME280;63326;45.088;7.658;2023-03-01T14:52:54;98606.41;;;7.85;53.02
74798;BME280;63326;45.088;7.658;2023-03-01T14:55:35;98631.28;;;7.69;53.58
74798;BME280;63326;45.088;7.658;2023-03-01T14:58:04;98623.94;;;7.79;53.23
74798;BME280;63326;45.088;7.658;2023-03-01T15:00:33;98622.25;;;7.70;54.01
74798;BME280;63326;45.088;7.658;2023-03-01T15:03:34;98616.25;;;7.60;54.53
74798;BME280;63326;45.088;7.658;2023-03-01T15:06:05;98560.47;;;7.16;54.72
74798;BME280;63326;45.088;7.658;2023-03-01T15:08:33;98600.66;;;7.31;55.00
74798;BME280;63326;45.088;7.658;2023-03-01T15:13:52;98612.72;;;7.51;55.46
74798;BME280;63326;45.088;7.658;2023-03-01T15:16:30;98638.59;;;7.59;56.13
74798;BME280;63326;45.088;7.658;2023-03-01T15:19:06;98610.00;;;7.27;56.33
74798;BME280;63326;45.088;7.658;2023-03-01T15:21:35;98649.03;;;7.44;56.24
74798;BME280;63326;45.088;7.658;2023-03-01T15:26:54;98686.94;;;7.56;56.87
74798;BME280;63326;45.088;7.658;2023-03-01T15:29:27;98659.50;;;7.30;56.52
74798;BME280;63326;45.088;7.658;2023-03-01T15:36:58;98711.13;;;7.63;56.65
74798;BME280;63326;45.088;7.658;2023-03-01T15:39:58;98711.13;;;7.63;56.79
74798;BME280;63326;45.088;7.658;2023-03-01T15:45:10;98717.63;;;7.60;56.73